Mc Coy, Texas
Current Conditions -  °F | °C
As of 11:15 AM on Thursday 27 Nov 2014 (Local Time) from KPEZ Reporting Station
Clear Clear  
Wind Chill: 62°   Ceiling: Unl
Heat Index: 62°   Visibility: 10mi
Dew Point: 32°   Wind: 14mph
Humidity: 33%   Direction: 40°NE
Pressure: 30.5"   Gusts: NA
Location:  28.8518°N, 98.2685°W
Report Text: KPEZ 271715Z AUTO 04012KT 10SM CLR 17/00 A3050 RMK AO2 T01650002
Loading
Personal Weather Stations






























Interactive Weather Map New forecast layout! Learn more

10-Day Weather Forecast

Advertisements
Track Severe Weather on mobile